Time;durP1;ratioP1;P1;durP2;ratioP2;P2;SDS_P1;SDS_P2;PMS_P1;PMS_P2;Temp;Humidity;BMP_temperature;BMP_pressure;BME280_temperature;BME280_humidity;BME280_pressure;Samples;Min_cycle;Max_cycle;Signal;HPM_P1;HPM_P2
2022/05/21 00:00:54;;;;;;;5.68;3.65;;;15.60;69.30;;;;;;5070583;28;20412;-47
2022/05/21 00:03:21;;;;;;;4.25;3.80;;;15.60;69.40;;;;;;5068503;28;20040;-47
2022/05/21 00:05:49;;;;;;;6.35;4.10;;;15.50;70.00;;;;;;5064576;28;20101;-50
2022/05/21 00:08:19;;;;;;;5.43;3.78;;;15.50;69.80;;;;;;5067833;28;20547;-47
2022/05/21 00:10:50;;;;;;;5.45;4.18;;;15.50;69.60;;;;;;5069719;28;20161;-49
2022/05/21 00:13:17;;;;;;;5.53;3.85;;;15.50;69.60;;;;;;5069739;28;20048;-47
2022/05/21 00:15:54;;;;;;;4.00;3.50;;;15.50;69.60;;;;;;5063389;28;20043;-48
2022/05/21 00:18:23;;;;;;;4.05;3.70;;;15.50;69.60;;;;;;5058695;28;20135;-47
2022/05/21 00:20:52;;;;;;;4.07;3.20;;;15.50;69.70;;;;;;5057496;28;20447;-47
2022/05/21 00:23:24;;;;;;;6.38;3.80;;;15.40;69.60;;;;;;5055291;28;20071;-50
2022/05/21 00:26:06;;;;;;;4.73;3.77;;;15.50;69.80;;;;;;5053215;28;20068;-47
2022/05/21 00:28:37;;;;;;;4.43;2.97;;;15.40;69.90;;;;;;5064065;28;20052;-48
2022/05/21 00:31:07;;;;;;;5.18;3.00;;;15.40;69.90;;;;;;5060877;28;20048;-50
2022/05/21 00:33:37;;;;;;;4.50;3.67;;;15.40;69.70;;;;;;5070155;28;20043;-51
2022/05/21 00:36:07;;;;;;;3.65;3.10;;;15.40;69.80;;;;;;5065304;28;20057;-47
2022/05/21 00:38:36;;;;;;;3.42;2.72;;;15.40;69.80;;;;;;5069377;28;20478;-48
2022/05/21 00:41:11;;;;;;;3.17;2.88;;;15.40;69.80;;;;;;5069509;28;20119;-50
2022/05/21 00:43:49;;;;;;;2.72;2.53;;;15.40;69.80;;;;;;5068330;28;20044;-48
2022/05/21 00:46:17;;;;;;;4.32;2.88;;;15.40;70.00;;;;;;5060105;28;20559;-47
2022/05/21 00:48:51;;;;;;;3.00;2.70;;;15.40;70.00;;;;;;5070008;28;20050;-48
2022/05/21 00:51:26;;;;;;;4.28;2.95;;;15.40;69.90;;;;;;5066186;28;20526;-48
2022/05/21 00:53:55;;;;;;;3.53;2.90;;;15.40;69.90;;;;;;5055104;28;20041;-47
2022/05/21 00:56:25;;;;;;;3.33;2.63;;;15.40;69.90;;;;;;5049152;28;20111;-47
2022/05/21 01:01:45;;;;;;;3.63;2.70;;;15.30;69.90;;;;;;5067684;28;20044;-46
2022/05/21 01:04:13;;;;;;;;;;;15.30;69.80;;;;;;5062192;28;20615;-48
2022/05/21 01:06:40;;;;;;;5.47;2.90;;;15.40;69.70;;;;;;5069203;28;20349;-47
2022/05/21 01:09:07;;;;;;;3.70;2.92;;;15.30;69.40;;;;;;5069250;28;20048;-48
2022/05/21 01:11:37;;;;;;;3.25;2.38;;;15.30;69.50;;;;;;5068954;28;20040;-48
2022/05/21 01:14:10;;;;;;;3.05;2.38;;;15.30;69.60;;;;;;5051587;28;20036;-47
2022/05/21 01:16:41;;;;;;;2.78;2.47;;;15.20;69.60;;;;;;5069434;28;20048;-50
2022/05/21 01:19:11;;;;;;;4.68;2.45;;;15.30;69.60;;;;;;5065337;28;20404;-47
2022/05/21 01:21:43;;;;;;;5.35;2.85;;;15.20;69.60;;;;;;5059218;28;20436;-47
2022/05/21 01:24:14;;;;;;;3.97;3.15;;;15.20;69.60;;;;;;5070231;28;20151;-47
2022/05/21 01:26:41;;;;;;;4.85;2.80;;;15.20;69.80;;;;;;5063868;28;20041;-48
2022/05/21 01:29:17;;;;;;;5.38;2.67;;;15.20;69.70;;;;;;5063722;28;20562;-48
2022/05/21 01:31:51;;;;;;;5.10;2.55;;;15.20;70.40;;;;;;5061452;28;20045;-48
2022/05/21 01:34:22;;;;;;;3.53;2.80;;;15.20;69.60;;;;;;5053521;28;20128;-46
2022/05/21 01:36:50;;;;;;;4.55;2.78;;;15.20;69.70;;;;;;5066524;28;20094;-51
2022/05/21 01:39:20;;;;;;;5.07;2.75;;;15.10;70.30;;;;;;5047511;28;20495;-47
2022/05/21 01:41:51;;;;;;;4.53;2.92;;;15.10;69.70;;;;;;5053184;28;20044;-51
2022/05/21 01:47:11;;;;;;;5.95;2.85;;;15.10;69.60;;;;;;5072652;28;20519;-49
2022/05/21 01:49:40;;;;;;;5.90;3.88;;;15.10;69.60;;;;;;5064020;28;20516;-48
2022/05/21 01:52:13;;;;;;;6.82;4.07;;;15.10;69.60;;;;;;5067547;28;20051;-51
2022/05/21 01:54:40;;;;;;;11.10;3.92;;;15.10;69.60;;;;;;5039281;28;20531;-47
2022/05/21 01:57:14;;;;;;;5.50;3.38;;;15.10;69.60;;;;;;5073090;28;20090;-51
2022/05/21 01:59:48;;;;;;;6.80;4.05;;;15.10;69.80;;;;;;5060442;28;20068;-48
2022/05/21 02:02:17;;;;;;;5.65;3.28;;;15.00;69.60;;;;;;5056210;28;20086;-50
2022/05/21 02:04:47;;;;;;;7.05;4.18;;;15.00;69.60;;;;;;5071187;28;20049;-50
2022/05/21 02:07:13;;;;;;;5.90;3.05;;;15.00;69.70;;;;;;5069574;28;20071;-52
2022/05/21 02:09:43;;;;;;;7.05;3.33;;;15.00;69.70;;;;;;5063935;28;20102;-48
2022/05/21 02:12:15;;;;;;;8.60;3.85;;;15.00;69.70;;;;;;5073043;28;20098;-49
2022/05/21 02:14:45;;;;;;;4.70;2.95;;;15.00;69.80;;;;;;5071167;28;20048;-51
2022/05/21 02:17:12;;;;;;;7.13;3.00;;;15.00;69.80;;;;;;5072474;28;20049;-51
2022/05/21 02:19:41;;;;;;;6.32;3.15;;;15.00;69.90;;;;;;5055930;28;20086;-48
2022/05/21 02:22:10;;;;;;;6.22;3.10;;;15.00;70.00;;;;;;5059961;28;20094;-49
2022/05/21 02:24:39;;;;;;;5.93;3.15;;;15.00;70.00;;;;;;5066788;28;20044;-52
2022/05/21 02:27:10;;;;;;;6.60;3.55;;;15.00;70.10;;;;;;5063243;28;20412;-52
2022/05/21 02:29:42;;;;;;;4.97;2.70;;;15.00;70.40;;;;;;5051749;28;20055;-51
2022/05/21 02:32:14;;;;;;;5.78;2.58;;;15.00;70.30;;;;;;5060376;28;20458;-50
2022/05/21 02:34:41;;;;;;;5.20;2.70;;;15.00;70.30;;;;;;5067572;28;20110;-50
2022/05/21 02:39:54;;;;;;;4.38;2.30;;;15.00;70.40;;;;;;5030201;28;20107;-43
2022/05/21 02:45:08;;;;;;;3.92;2.15;;;15.10;70.10;;;;;;5050748;28;20099;-42
2022/05/21 02:47:37;;;;;;;5.18;2.50;;;15.10;70.00;;;;;;5070438;28;20068;-43
2022/05/21 02:50:10;;;;;;;4.65;2.30;;;15.20;70.10;;;;;;5070894;28;20047;-44
2022/05/21 02:52:39;;;;;;;5.55;2.75;;;15.20;70.10;;;;;;5052291;28;20524;-43
2022/05/21 02:55:10;;;;;;;6.50;2.70;;;15.20;70.20;;;;;;5051396;28;20112;-43
2022/05/21 02:57:37;;;;;;;5.78;2.38;;;15.20;70.20;;;;;;5054437;28;20079;-44
2022/05/21 03:00:12;;;;;;;4.60;2.30;;;15.30;70.10;;;;;;5070695;28;20075;-43
2022/05/21 03:02:41;;;;;;;3.17;1.83;;;15.30;70.10;;;;;;5067975;28;20056;-45
2022/05/21 03:05:12;;;;;;;3.03;1.75;;;15.30;70.10;;;;;;5068798;28;20029;-43
2022/05/21 03:07:41;;;;;;;5.45;2.10;;;15.40;70.10;;;;;;5051496;28;20110;-43
2022/05/21 03:10:21;;;;;;;5.30;1.88;;;15.40;69.90;;;;;;5070361;28;20082;-44
2022/05/21 03:13:01;;;;;;;4.22;2.60;;;15.40;69.80;;;;;;5066578;28;20119;-45
2022/05/21 03:15:33;;;;;;;6.75;2.22;;;15.50;69.70;;;;;;5067449;28;20044;-45
2022/05/21 03:18:05;;;;;;;5.90;2.25;;;15.50;69.60;;;;;;5051902;28;20468;-45
2022/05/21 03:20:34;;;;;;;4.60;1.88;;;15.50;69.40;;;;;;5067347;28;20052;-44
2022/05/21 03:23:07;;;;;;;3.70;2.53;;;15.50;69.30;;;;;;5072563;28;20511;-45
2022/05/21 03:25:35;;;;;;;4.38;1.65;;;15.60;69.40;;;;;;5070468;28;20032;-44
2022/05/21 03:28:07;;;;;;;5.63;2.67;;;15.60;69.30;;;;;;5053939;28;20059;-45
2022/05/21 03:30:39;;;;;;;4.75;2.38;;;15.60;69.80;;;;;;5070165;28;20091;-43
2022/05/21 03:33:08;;;;;;;3.67;1.90;;;15.60;69.10;;;;;;5063916;28;20050;-47
2022/05/21 03:35:42;;;;;;;3.92;2.05;;;15.70;69.00;;;;;;5071264;28;20044;-44
2022/05/21 03:38:19;;;;;;;3.33;2.20;;;15.60;68.90;;;;;;5069253;28;20040;-44
2022/05/21 03:40:49;;;;;;;4.75;2.10;;;15.60;68.80;;;;;;5070762;28;20044;-45
2022/05/21 03:43:15;;;;;;;3.42;2.10;;;15.70;68.70;;;;;;5062779;28;20547;-46
2022/05/21 03:45:47;;;;;;;6.05;2.55;;;15.70;68.60;;;;;;5071237;28;20484;-44
2022/05/21 03:48:17;;;;;;;6.95;2.22;;;15.60;68.60;;;;;;5070679;28;20033;-44
2022/05/21 03:50:46;;;;;;;3.28;2.20;;;15.70;68.60;;;;;;5066630;28;20047;-46
2022/05/21 03:53:16;;;;;;;4.57;1.85;;;15.70;68.60;;;;;;5068866;28;20500;-44
2022/05/21 03:55:44;;;;;;;4.80;2.22;;;15.60;68.50;;;;;;5070152;28;20411;-46
2022/05/21 03:58:16;;;;;;;7.03;2.45;;;15.60;68.50;;;;;;5064334;28;20047;-44
2022/05/21 04:00:45;;;;;;;5.68;2.05;;;15.60;68.60;;;;;;5066244;28;20032;-43
2022/05/21 04:03:12;;;;;;;3.88;2.15;;;15.60;68.60;;;;;;5068510;28;20094;-44
2022/05/21 04:05:39;;;;;;;7.38;2.83;;;15.70;68.60;;;;;;5036167;28;20037;-46
2022/05/21 04:08:14;;;;;;;6.75;2.40;;;15.70;68.50;;;;;;5066858;28;20032;-45
2022/05/21 04:10:41;;;;;;;6.88;2.60;;;15.70;68.50;;;;;;5059270;28;20075;-47
2022/05/21 04:13:10;;;;;;;6.30;2.10;;;15.70;68.40;;;;;;5061063;28;20569;-44
2022/05/21 04:15:36;;;;;;;6.07;2.45;;;15.70;68.50;;;;;;5065723;28;20488;-45
2022/05/21 04:18:03;;;;;;;5.07;2.10;;;15.70;68.50;;;;;;5069144;28;20037;-43
2022/05/21 04:20:38;;;;;;;4.05;2.38;;;15.70;68.40;;;;;;5050948;28;20036;-45
2022/05/21 04:23:06;;;;;;;9.52;2.40;;;15.70;68.40;;;;;;5047667;28;20112;-46
2022/05/21 04:25:36;;;;;;;4.57;2.78;;;15.70;68.20;;;;;;5054044;28;20042;-47
2022/05/21 04:28:08;;;;;;;5.68;2.95;;;15.80;68.40;;;;;;5069630;28;20115;-44
2022/05/21 04:30:36;;;;;;;5.90;2.47;;;15.80;68.20;;;;;;5042376;28;20044;-43
2022/05/21 04:33:05;;;;;;;5.28;2.53;;;15.80;68.20;;;;;;5059009;28;20064;-44
2022/05/21 04:38:17;;;;;;;6.10;2.60;;;15.80;68.10;;;;;;5063979;28;20040;-44
2022/05/21 04:40:47;;;;;;;7.68;2.65;;;15.80;68.30;;;;;;5059692;28;20033;-46
2022/05/21 04:43:14;;;;;;;3.55;2.10;;;15.80;68.30;;;;;;5060844;28;20032;-43
2022/05/21 04:45:55;;;;;;;6.65;2.92;;;15.90;68.40;;;;;;5065237;28;20041;-45
2022/05/21 04:48:26;;;;;;;5.85;2.78;;;15.80;68.20;;;;;;5068921;28;20052;-45
2022/05/21 04:50:59;;;;;;;7.83;3.23;;;15.90;68.20;;;;;;5070097;28;20033;-47
2022/05/21 04:53:32;;;;;;;7.32;3.17;;;15.90;68.20;;;;;;5067736;28;20144;-45
2022/05/21 04:55:59;;;;;;;5.32;2.33;;;15.90;68.10;;;;;;5068350;28;20492;-43
2022/05/21 04:58:28;;;;;;;11.45;3.63;;;15.90;68.10;;;;;;5057885;28;20067;-47
2022/05/21 05:00:57;;;;;;;3.17;2.00;;;16.00;68.10;;;;;;5050561;28;20555;-45
2022/05/21 05:03:25;;;;;;;4.50;2.63;;;15.90;68.10;;;;;;5060549;28;20037;-48
2022/05/21 05:05:52;;;;;;;5.40;2.65;;;16.00;68.10;;;;;;5066376;28;20496;-45
2022/05/21 05:08:21;;;;;;;3.35;2.10;;;16.00;68.00;;;;;;5042130;28;20079;-45
2022/05/21 05:10:51;;;;;;;4.00;2.17;;;16.00;67.90;;;;;;5060777;28;20466;-46
2022/05/21 05:13:22;;;;;;;8.00;2.90;;;16.00;67.90;;;;;;5067836;28;20531;-44
2022/05/21 05:15:49;;;;;;;7.15;3.17;;;16.00;67.90;;;;;;5068702;28;20037;-48
2022/05/21 05:18:21;;;;;;;5.38;3.03;;;16.00;67.90;;;;;;5065731;28;20444;-45
2022/05/21 05:20:48;;;;;;;6.43;3.10;;;16.10;68.00;;;;;;5064588;28;20041;-46
2022/05/21 05:23:15;;;;;;;9.23;3.20;;;16.10;67.90;;;;;;5068726;28;20458;-46
2022/05/21 05:25:42;;;;;;;9.30;3.70;;;16.10;67.80;;;;;;5049529;28;20798;-43
2022/05/21 05:28:18;;;;;;;7.00;3.55;;;16.10;67.70;;;;;;5056666;28;20412;-45
2022/05/21 05:30:47;;;;;;;7.65;3.83;;;16.10;67.30;;;;;;5058167;28;20064;-46
2022/05/21 05:33:15;;;;;;;6.82;3.17;;;16.10;67.50;;;;;;5068871;28;20056;-45
2022/05/21 05:35:42;;;;;;;7.63;3.30;;;16.10;67.50;;;;;;5061086;28;20106;-43
2022/05/21 05:38:15;;;;;;;7.18;4.05;;;16.10;67.50;;;;;;5070462;28;20044;-45
2022/05/21 05:40:45;;;;;;;9.35;3.70;;;16.20;67.50;;;;;;5069112;28;20068;-45
2022/05/21 05:43:16;;;;;;;6.65;3.67;;;16.20;67.40;;;;;;5066875;28;20473;-45
2022/05/21 05:45:47;;;;;;;5.43;3.30;;;16.20;67.40;;;;;;5062663;28;20128;-49
2022/05/21 05:48:13;;;;;;;5.90;3.97;;;16.20;67.50;;;;;;5070341;28;20040;-47
2022/05/21 05:50:40;;;;;;;7.47;4.45;;;16.20;67.70;;;;;;5065525;28;20531;-44
2022/05/21 05:53:07;;;;;;;10.48;4.55;;;16.20;67.70;;;;;;5070361;28;20041;-46
2022/05/21 05:55:36;;;;;;;7.05;3.78;;;16.20;67.70;;;;;;5061218;28;20037;-45
2022/05/21 05:59:48;;;;;;;5.45;3.35;;;16.20;67.70;;;;;;5068518;28;20078;-44
2022/05/21 06:00:50;;;;;;;8.13;4.28;;;16.30;67.70;;;;;;5066911;28;20073;-46
2022/05/21 06:03:21;;;;;;;10.57;4.15;;;16.30;67.60;;;;;;5060570;28;20037;-46
2022/05/21 06:05:50;;;;;;;10.23;5.00;;;16.30;67.50;;;;;;5053168;28;20114;-46
2022/05/21 06:08:17;;;;;;;6.00;3.80;;;16.40;67.50;;;;;;5052025;28;20048;-47
2022/05/21 06:10:49;;;;;;;6.13;3.78;;;16.40;67.70;;;;;;5069429;28;20045;-48
2022/05/21 06:13:18;;;;;;;11.55;4.90;;;16.40;67.80;;;;;;5062720;28;20065;-47
2022/05/21 06:15:45;;;;;;;8.65;4.78;;;16.40;67.90;;;;;;5066623;28;20381;-50
2022/05/21 06:18:22;;;;;;;8.23;4.40;;;16.50;67.90;;;;;;5063002;28;20094;-46
2022/05/21 06:20:50;;;;;;;7.28;4.13;;;16.50;67.70;;;;;;5063157;28;20068;-50
2022/05/21 06:23:20;;;;;;;8.48;4.05;;;16.50;67.70;;;;;;5066925;28;20114;-47
2022/05/21 06:25:48;;;;;;;9.70;4.07;;;16.60;67.60;;;;;;5064467;28;20056;-46
2022/05/21 06:28:18;;;;;;;7.15;4.45;;;16.60;67.40;;;;;;5065837;28;20501;-49
2022/05/21 06:30:46;;;;;;;6.53;4.18;;;16.70;67.20;;;;;;5054815;28;20500;-46
2022/05/21 06:33:20;;;;;;;7.70;4.50;;;16.70;67.10;;;;;;5054075;28;20049;-47
2022/05/21 06:35:48;;;;;;;11.00;5.03;;;16.80;67.00;;;;;;5017488;28;22264;-47
2022/05/21 06:38:16;;;;;;;7.95;4.40;;;16.80;66.90;;;;;;5045506;28;20071;-49
2022/05/21 06:40:44;;;;;;;8.85;4.63;;;16.80;66.90;;;;;;5030662;28;20143;-49
2022/05/21 06:43:12;;;;;;;12.38;4.78;;;16.80;67.10;;;;;;5043079;28;20045;-51
2022/05/21 06:45:38;;;;;;;12.45;5.03;;;16.90;66.90;;;;;;5039119;28;20485;-49
2022/05/21 06:48:07;;;;;;;11.93;4.72;;;16.90;67.00;;;;;;5054667;28;20522;-49
2022/05/21 06:50:37;;;;;;;10.98;5.20;;;17.00;66.70;;;;;;5045222;28;20072;-49
2022/05/21 06:53:04;;;;;;;12.02;5.28;;;17.00;66.80;;;;;;5053539;28;20044;-50
2022/05/21 06:55:33;;;;;;;9.43;5.07;;;17.00;66.50;;;;;;5045013;28;20111;-46
2022/05/21 06:58:00;;;;;;;7.55;4.53;;;16.90;66.40;;;;;;5054768;28;20123;-49
2022/05/21 07:00:30;;;;;;;12.18;5.28;;;17.10;66.50;;;;;;5041309;28;20094;-48
2022/05/21 07:02:57;;;;;;;8.93;5.68;;;17.10;66.50;;;;;;5056397;28;20416;-50
2022/05/21 07:08:25;;;;;;;9.98;5.07;;;17.20;66.50;;;;;;5053050;28;20137;-49
2022/05/21 07:10:53;;;;;;;8.85;5.30;;;17.20;66.10;;;;;;5022753;28;20094;-48
2022/05/21 07:13:22;;;;;;;8.27;5.20;;;17.20;66.00;;;;;;5050273;28;20052;-46
2022/05/21 07:15:50;;;;;;;11.30;5.43;;;17.30;65.70;;;;;;5037888;28;20048;-46
2022/05/21 07:18:19;;;;;;;14.93;6.05;;;17.30;65.60;;;;;;5059239;28;20105;-50
2022/05/21 07:20:46;;;;;;;13.40;6.40;;;17.30;65.50;;;;;;5042083;28;20106;-47
2022/05/21 07:23:13;;;;;;;9.35;5.55;;;17.40;65.70;;;;;;5056364;28;20071;-47
2022/05/21 07:25:40;;;;;;;9.02;4.55;;;17.50;66.00;;;;;;5038860;28;20045;-48
2022/05/21 07:28:08;;;;;;;8.55;4.72;;;17.50;66.20;;;;;;5055073;28;20489;-50
2022/05/21 07:30:36;;;;;;;8.18;4.68;;;17.60;65.80;;;;;;5046886;28;20040;-49
2022/05/21 07:33:04;;;;;;;11.70;5.32;;;17.60;65.20;;;;;;5050832;28;20551;-50
2022/05/21 07:35:34;;;;;;;14.85;5.75;;;17.80;65.20;;;;;;5051765;28;20040;-48
2022/05/21 07:38:01;;;;;;;9.73;5.55;;;17.80;65.00;;;;;;5036123;28;20138;-49
2022/05/21 07:40:27;;;;;;;7.82;6.15;;;17.80;64.90;;;;;;5054524;28;20114;-51
2022/05/21 07:42:58;;;;;;;8.93;4.78;;;17.90;64.70;;;;;;5051943;28;20116;-50
2022/05/21 07:45:25;;;;;;;11.80;5.85;;;18.00;65.00;;;;;;5046232;28;20045;-49
2022/05/21 07:47:52;;;;;;;12.50;5.93;;;18.00;64.80;;;;;;5051359;28;20045;-50
2022/05/21 07:50:20;;;;;;;10.02;5.28;;;18.10;64.40;;;;;;5066084;28;20106;-51
2022/05/21 07:52:47;;;;;;;9.00;4.65;;;18.10;63.90;;;;;;5045959;28;20080;-49
2022/05/21 07:55:14;;;;;;;11.25;5.80;;;18.20;63.60;;;;;;5049511;28;20048;-49
2022/05/21 07:57:41;;;;;;;9.30;4.88;;;18.10;63.20;;;;;;5027456;28;20086;-47
2022/05/21 08:00:10;;;;;;;7.30;5.15;;;18.30;62.70;;;;;;5059034;28;20445;-48
2022/05/21 08:02:41;;;;;;;8.18;4.30;;;18.30;62.20;;;;;;5046704;28;20044;-49
2022/05/21 08:05:08;;;;;;;5.88;3.45;;;18.30;62.10;;;;;;5058839;28;20059;-49
2022/05/21 08:07:35;;;;;;;12.52;5.57;;;18.30;62.20;;;;;;5046206;28;20082;-49
2022/05/21 08:10:04;;;;;;;10.13;4.80;;;18.40;62.50;;;;;;5052598;28;20118;-47
2022/05/21 08:12:31;;;;;;;10.50;4.75;;;18.40;62.00;;;;;;5043097;28;20126;-50
2022/05/21 08:14:58;;;;;;;6.95;4.07;;;18.50;62.10;;;;;;5041286;28;20078;-51
2022/05/21 08:17:25;;;;;;;8.30;4.07;;;18.50;61.80;;;;;;5043931;28;20040;-49
2022/05/21 08:19:52;;;;;;;7.07;3.80;;;18.70;61.70;;;;;;5047872;28;20102;-51
2022/05/21 08:27:56;;;;;;;8.73;4.40;;;18.80;61.70;;;;;;5052222;28;20049;-49
2022/05/21 08:30:23;;;;;;;5.65;4.03;;;18.80;61.20;;;;;;5052970;28;20098;-50
2022/05/21 08:33:09;;;;;;;9.18;4.07;;;18.80;61.50;;;;;;5039161;28;20044;-49
2022/05/21 08:35:40;;;;;;;11.20;4.25;;;18.90;61.60;;;;;;5034766;28;20040;-48
2022/05/21 08:38:08;;;;;;;7.80;4.18;;;18.90;60.90;;;;;;5062953;23;20064;-55
2022/05/21 08:40:41;;;;;;;7.72;3.63;;;19.00;60.90;;;;;;5024846;28;20959;-56
2022/05/21 08:43:23;;;;;;;7.97;3.63;;;19.00;60.10;;;;;;5035028;28;20029;-55
2022/05/21 08:46:02;;;;;;;10.00;4.38;;;19.00;59.80;;;;;;5022805;28;20076;-55
2022/05/21 08:48:32;;;;;;;7.35;4.15;;;19.10;60.70;;;;;;5050849;28;20064;-58
2022/05/21 08:51:20;;;;;;;8.88;4.55;;;19.10;60.40;;;;;;5061576;28;20037;-55
2022/05/21 08:53:52;;;;;;;8.27;4.10;;;19.20;60.80;;;;;;5047822;28;20090;-53
2022/05/21 08:56:24;;;;;;;6.63;4.60;;;19.20;60.60;;;;;;5063303;28;20064;-54
2022/05/21 08:59:03;;;;;;;6.72;3.85;;;19.30;61.00;;;;;;5064510;28;20094;-52
2022/05/21 09:01:35;;;;;;;5.45;3.92;;;19.30;60.20;;;;;;5064918;28;20045;-55
2022/05/21 09:04:04;;;;;;;9.70;4.30;;;19.30;59.80;;;;;;5061749;28;20041;-53
2022/05/21 09:06:54;;;;;;;10.57;5.55;;;19.40;60.30;;;;;;5067534;28;20112;-53
2022/05/21 09:09:39;;;;;;;9.98;4.30;;;19.40;59.80;;;;;;5064728;28;20064;-55
2022/05/21 09:12:14;;;;;;;6.95;3.75;;;19.40;60.30;;;;;;5066306;28;20044;-53
2022/05/21 09:14:43;;;;;;;8.32;3.50;;;19.50;60.30;;;;;;5063259;28;20084;-55
2022/05/21 09:17:16;;;;;;;9.20;4.05;;;19.60;60.30;;;;;;5061697;28;20394;-53
2022/05/21 09:19:48;;;;;;;10.23;4.50;;;19.60;59.50;;;;;;5067720;28;20072;-53
2022/05/21 09:22:18;;;;;;;7.13;4.32;;;19.70;58.70;;;;;;5061455;28;20051;-56
2022/05/21 09:25:18;;;;;;;11.43;4.30;;;19.80;58.80;;;;;;5067708;28;20055;-57
2022/05/21 09:27:47;;;;;;;6.70;3.80;;;19.80;58.30;;;;;;5065526;28;20082;-55
2022/05/21 09:30:20;;;;;;;8.07;4.00;;;20.00;58.40;;;;;;5014752;28;20124;-57
2022/05/21 09:32:52;;;;;;;7.97;3.38;;;20.00;59.20;;;;;;5053255;28;20063;-56
2022/05/21 09:35:23;;;;;;;7.93;3.28;;;20.10;57.50;;;;;;5043208;28;20399;-56
2022/05/21 09:37:50;;;;;;;5.95;3.85;;;20.10;57.00;;;;;;5048303;28;20447;-54
2022/05/21 09:40:37;;;;;;;7.38;3.90;;;20.20;56.30;;;;;;5036291;28;20527;-56
2022/05/21 09:46:19;;;;;;;10.15;4.15;;;20.30;56.60;;;;;;5044787;28;20041;-56
2022/05/21 09:48:49;;;;;;;7.78;3.33;;;20.30;56.40;;;;;;5052713;28;20091;-55
2022/05/21 09:51:27;;;;;;;6.63;3.67;;;20.30;56.30;;;;;;5056742;28;20619;-56
2022/05/21 09:53:54;;;;;;;5.88;3.53;;;20.40;55.30;;;;;;5046651;28;20088;-56
2022/05/21 09:56:32;;;;;;;11.32;5.53;;;20.40;56.10;;;;;;5050106;28;20069;-56
2022/05/21 09:59:17;;;;;;;8.95;3.63;;;20.40;56.30;;;;;;5036888;28;20065;-56
2022/05/21 10:01:49;;;;;;;9.18;4.05;;;20.40;55.70;;;;;;5061823;28;20102;-56
2022/05/21 10:04:27;;;;;;;;;;;20.40;55.60;;;;;;5055248;28;20069;-56
2022/05/21 10:07:03;;;;;;;7.03;3.53;;;20.40;56.80;;;;;;5054569;28;19920;-55
2022/05/21 10:12:28;;;;;;;7.93;4.65;;;20.40;56.20;;;;;;5062224;28;20048;-54
2022/05/21 10:15:23;;;;;;;5.18;4.05;;;20.40;56.20;;;;;;5041275;28;20092;-55
2022/05/21 10:17:59;;;;;;;7.20;3.97;;;20.50;55.30;;;;;;5050996;28;20060;-54
2022/05/21 10:20:38;;;;;;;6.63;3.55;;;20.60;55.60;;;;;;5042827;28;20044;-54
2022/05/21 10:23:32;;;;;;;6.95;3.72;;;20.70;54.60;;;;;;5063024;28;20029;-57
2022/05/21 10:26:30;;;;;;;5.40;3.10;;;20.70;54.90;;;;;;5038675;28;20102;-54
2022/05/21 10:29:34;;;;;;;6.13;3.03;;;20.80;55.50;;;;;;4991685;28;20881;-55
2022/05/21 10:32:11;;;;;;;4.93;3.22;;;20.90;55.30;;;;;;5054158;28;20033;-55
2022/05/21 10:34:57;;;;;;;7.05;3.53;;;21.00;55.10;;;;;;5047784;28;20071;-57
2022/05/21 10:38:01;;;;;;;6.35;3.65;;;21.10;53.70;;;;;;5053109;28;20067;-55
2022/05/21 10:40:53;;;;;;;8.85;3.67;;;21.30;54.70;;;;;;5044565;28;20633;-57
2022/05/21 10:44:00;;;;;;;5.72;3.28;;;21.40;53.10;;;;;;5064046;28;20531;-56
2022/05/21 10:46:43;;;;;;;6.13;3.45;;;21.60;51.90;;;;;;5050468;28;20451;-56
2022/05/21 10:49:48;;;;;;;6.82;3.88;;;21.70;52.70;;;;;;5045039;28;20049;-56
2022/05/21 10:52:33;;;;;;;4.95;3.50;;;21.80;51.90;;;;;;5062002;28;20094;-57
2022/05/21 10:55:12;;;;;;;6.88;3.97;;;21.90;51.00;;;;;;5042357;28;20041;-56
2022/05/21 10:58:03;;;;;;;3.97;3.60;;;21.90;52.10;;;;;;5062948;28;20517;-56
2022/05/21 11:00:42;;;;;;;6.33;3.47;;;22.00;51.00;;;;;;5042680;28;20072;-54
2022/05/21 11:03:33;;;;;;;7.88;3.45;;;22.00;51.70;;;;;;5058726;28;20033;-56
2022/05/21 11:06:36;;;;;;;7.53;3.33;;;22.10;51.90;;;;;;5045389;28;20048;-57
2022/05/21 11:09:08;;;;;;;6.93;3.47;;;22.10;52.40;;;;;;5028260;28;20185;-56
2022/05/21 11:11:53;;;;;;;7.68;4.20;;;22.30;52.00;;;;;;5057076;28;20043;-57
2022/05/21 11:14:52;;;;;;;7.95;4.05;;;22.40;53.10;;;;;;5045513;28;20076;-54
2022/05/21 11:17:42;;;;;;;5.38;3.85;;;22.50;52.20;;;;;;5058384;28;20045;-57
2022/05/21 11:20:25;;;;;;;5.47;3.40;;;22.70;51.30;;;;;;5048099;28;20118;-57
2022/05/21 11:23:01;;;;;;;3.80;3.35;;;22.90;50.70;;;;;;5049044;28;20824;-56
2022/05/21 11:25:36;;;;;;;8.05;3.15;;;22.90;49.80;;;;;;5039175;28;20051;-57
2022/05/21 11:28:27;;;;;;;6.60;2.40;;;23.00;49.70;;;;;;5062041;28;20040;-56
2022/05/21 11:30:59;;;;;;;5.30;2.90;;;23.00;49.10;;;;;;5043117;28;20090;-54
2022/05/21 11:39:11;;;;;;;6.00;3.55;;;23.20;49.40;;;;;;5054863;28;20702;-54
2022/05/21 11:41:53;;;;;;;9.75;3.75;;;23.30;47.80;;;;;;5049832;28;20037;-55
2022/05/21 11:47:12;;;;;;;9.32;4.22;;;23.20;48.50;;;;;;5061758;28;20565;-57
2022/05/21 11:50:08;;;;;;;7.68;3.55;;;23.20;47.50;;;;;;5045030;28;21310;-57
2022/05/21 11:52:35;;;;;;;5.10;3.20;;;23.10;47.20;;;;;;5057140;28;20079;-57
2022/05/21 11:55:09;;;;;;;7.32;3.63;;;23.10;48.10;;;;;;5037543;28;20040;-56
2022/05/21 11:58:02;;;;;;;6.05;3.88;;;23.00;48.00;;;;;;5051195;28;20455;-56
2022/05/21 12:00:29;;;;;;;5.32;3.10;;;23.00;47.80;;;;;;5042294;28;20549;-57
2022/05/21 12:03:04;;;;;;;5.18;2.88;;;23.00;48.50;;;;;;5052612;28;20069;-56
2022/05/21 12:05:41;;;;;;;4.78;3.13;;;23.00;48.20;;;;;;5041322;28;20053;-57
2022/05/21 12:08:17;;;;;;;5.13;2.85;;;23.00;48.10;;;;;;5058076;28;20523;-57
2022/05/21 12:11:04;;;;;;;5.63;3.00;;;23.10;47.30;;;;;;5060374;28;20047;-57
2022/05/21 12:13:34;;;;;;;4.75;3.45;;;23.20;47.30;;;;;;5060405;28;20048;-56
2022/05/21 12:16:26;;;;;;;6.43;3.20;;;23.40;47.30;;;;;;5060699;28;20041;-56
2022/05/21 12:19:08;;;;;;;6.63;3.15;;;23.50;46.30;;;;;;5059973;28;20500;-56
2022/05/21 12:21:38;;;;;;;5.65;3.00;;;23.70;47.00;;;;;;5060087;28;20550;-56
2022/05/21 12:24:10;;;;;;;6.03;3.42;;;23.70;46.40;;;;;;5064616;28;20064;-55
2022/05/21 12:26:41;;;;;;;4.30;2.30;;;23.80;46.30;;;;;;5068641;28;20036;-55
2022/05/21 12:29:24;;;;;;;4.75;2.17;;;23.90;46.80;;;;;;5052377;28;20515;-57
2022/05/21 12:32:16;;;;;;;4.20;3.35;;;24.00;45.70;;;;;;5057344;28;20553;-54
2022/05/21 12:35:18;;;;;;;4.05;2.65;;;24.00;44.80;;;;;;5050054;28;20063;-56
2022/05/21 12:37:49;;;;;;;4.45;2.72;;;24.00;45.00;;;;;;5051101;28;20045;-57
2022/05/21 12:40:34;;;;;;;4.28;2.83;;;23.90;44.80;;;;;;5031646;28;20083;-56
2022/05/21 12:43:13;;;;;;;2.95;2.63;;;23.80;44.80;;;;;;5066867;28;20044;-54
2022/05/21 12:45:44;;;;;;;6.90;3.15;;;23.70;45.00;;;;;;5049838;28;20116;-56
2022/05/21 12:48:44;;;;;;;6.63;3.00;;;23.70;45.30;;;;;;5050665;28;20041;-56
2022/05/21 12:51:21;;;;;;;3.85;2.85;;;23.70;46.10;;;;;;5012006;28;20076;-53
2022/05/21 12:54:22;;;;;;;5.28;3.30;;;23.70;46.50;;;;;;5062022;28;20044;-56
2022/05/21 12:56:50;;;;;;;5.60;2.92;;;23.70;46.10;;;;;;5063726;28;20075;-54
2022/05/21 12:59:19;;;;;;;4.50;2.85;;;23.80;46.50;;;;;;5044392;28;20061;-56
2022/05/21 13:02:13;;;;;;;5.57;3.03;;;23.80;45.40;;;;;;5031759;28;20068;-56
2022/05/21 13:04:43;;;;;;;4.80;3.30;;;23.90;44.50;;;;;;5053345;28;20055;-55
2022/05/21 13:07:22;;;;;;;9.25;3.35;;;24.00;44.70;;;;;;5044529;28;20037;-54
2022/05/21 13:10:00;;;;;;;8.93;3.40;;;24.00;45.50;;;;;;5041914;28;20037;-56
2022/05/21 13:12:36;;;;;;;5.28;3.42;;;24.00;45.40;;;;;;5054144;28;20053;-56
2022/05/21 13:15:04;;;;;;;4.78;3.10;;;24.10;44.30;;;;;;5040023;28;20999;-56
2022/05/21 13:17:42;;;;;;;6.40;2.85;;;24.20;45.10;;;;;;5058451;28;20091;-56
2022/05/21 13:20:29;;;;;;;5.15;3.22;;;24.40;43.70;;;;;;5050573;28;20134;-57
2022/05/21 13:23:16;;;;;;;4.43;3.08;;;24.50;43.30;;;;;;5059535;28;20095;-55
2022/05/21 13:25:51;;;;;;;4.20;2.80;;;24.60;41.70;;;;;;5045695;28;20075;-55
2022/05/21 13:28:20;;;;;;;3.67;2.35;;;24.50;42.50;;;;;;5057602;28;20053;-54
2022/05/21 13:30:51;;;;;;;5.30;2.40;;;24.60;42.70;;;;;;5048926;28;20369;-54
2022/05/21 13:33:26;;;;;;;4.00;2.65;;;24.50;42.90;;;;;;5061938;28;20075;-53
2022/05/21 13:36:02;;;;;;;5.13;2.95;;;24.50;43.00;;;;;;5046995;28;20033;-56
2022/05/21 13:38:36;;;;;;;4.50;2.90;;;24.60;43.40;;;;;;5053583;28;20087;-55
2022/05/21 13:41:22;;;;;;;5.63;2.88;;;24.60;42.00;;;;;;5056595;28;20048;-57
2022/05/21 13:43:50;;;;;;;6.95;3.40;;;24.70;43.50;;;;;;5058463;28;20036;-56
2022/05/21 13:46:27;;;;;;;5.68;3.38;;;24.80;42.50;;;;;;5046594;28;20041;-56
2022/05/21 13:48:58;;;;;;;5.72;2.28;;;24.90;41.50;;;;;;5068469;28;20086;-57
2022/05/21 13:51:28;;;;;;;3.55;2.90;;;25.00;42.90;;;;;;5050184;28;20045;-57
2022/05/21 13:53:57;;;;;;;5.10;3.05;;;25.00;43.00;;;;;;5052685;28;20408;-57